Time;durP1;ratioP1;P1;durP2;ratioP2;P2;SDS_P1;SDS_P2;PMS_P1;PMS_P2;Temp;Humidity;BMP_temperature;BMP_pressure;BME280_temperature;BME280_humidity;BME280_pressure;Samples;Min_cycle;Max_cycle;Signal;HPM_P1;HPM_P2
2021/10/21 00:01:09;;;;;;;2.40;2.20;;;15.40;1.00;;;;;;5043918;28;20456;-79
2021/10/21 00:03:36;;;;;;;6.77;2.40;;;15.40;1.00;;;;;;5033554;28;20430;-79
2021/10/21 00:06:02;;;;;;;3.70;1.83;;;15.40;1.00;;;;;;5033924;28;20399;-80
2021/10/21 00:08:29;;;;;;;3.67;1.80;;;;;;;;;;5033510;28;20875;-79
2021/10/21 00:11:10;;;;;;;3.00;2.07;;;15.40;1.00;;;;;;5044932;28;20419;-79
2021/10/21 00:13:36;;;;;;;1.90;1.80;;;;;;;;;;5039276;28;20425;-79
2021/10/21 00:16:38;;;;;;;5.23;1.87;;;;;;;;;;5053493;28;20370;-79
2021/10/21 00:19:09;;;;;;;4.80;1.97;;;;;;;;;;5053441;28;20401;-79
2021/10/21 00:21:39;;;;;;;2.13;1.93;;;;;;;;;;5052494;28;20457;-79
2021/10/21 00:24:09;;;;;;;5.00;1.87;;;;;;;;;;5043904;28;20405;-78
2021/10/21 00:27:20;;;;;;;2.33;1.93;;;15.30;1.00;;;;;;5037644;28;20894;-79
2021/10/21 00:30:03;;;;;;;1.60;1.50;;;;;;;;;;5037861;28;20395;-79
2021/10/21 00:32:50;;;;;;;2.40;1.60;;;15.30;1.00;;;;;;5045681;28;20427;-79
2021/10/21 00:35:50;;;;;;;1.77;1.67;;;15.30;1.00;;;;;;5054629;28;20414;-79
2021/10/21 00:38:38;;;;;;;4.37;2.00;;;15.40;1.00;;;;;;5056899;28;20423;-79
2021/10/21 00:41:15;;;;;;;2.40;1.57;;;;;;;;;;5039568;28;20824;-79
2021/10/21 00:43:41;;;;;;;2.30;1.57;;;15.40;1.00;;;;;;5046857;28;22352;-79
2021/10/21 00:46:10;;;;;;;2.30;1.83;;;;;;;;;;5046921;28;20436;-79
2021/10/21 00:48:40;;;;;;;4.10;1.73;;;15.40;1.00;;;;;;5055736;28;20430;-79
2021/10/21 00:51:15;;;;;;;1.67;1.57;;;;;;;;;;5049909;28;20407;-79
2021/10/21 00:53:43;;;;;;;3.03;1.47;;;15.50;1.00;;;;;;5053735;28;20392;-79
2021/10/21 00:56:13;;;;;;;1.40;1.30;;;;;;;;;;5042810;28;20425;-79
2021/10/21 00:58:49;;;;;;;1.87;1.40;;;15.50;1.00;;;;;;5056406;28;20856;-80
2021/10/21 01:01:29;;;;;;;2.50;1.53;;;;;;;;;;5040792;28;20462;-79
2021/10/21 01:03:57;;;;;;;1.40;1.30;;;;;;;;;;5043345;28;20489;-80
2021/10/21 01:06:26;;;;;;;1.83;1.20;;;15.60;1.00;;;;;;5038406;28;20411;-79
2021/10/21 01:09:09;;;;;;;2.00;1.07;;;15.60;1.00;;;;;;5040439;28;20475;-79
2021/10/21 01:11:45;;;;;;;1.63;1.20;;;;;;;;;;5044193;28;20439;-79
2021/10/21 01:14:20;;;;;;;1.73;1.53;;;15.70;1.00;;;;;;5046848;28;20393;-79
2021/10/21 01:17:26;;;;;;;1.57;1.47;;;15.80;1.00;;;;;;5036729;28;20407;-79
2021/10/21 01:19:57;;;;;;;1.80;1.70;;;;;;;;;;5036838;28;20409;-79
2021/10/21 01:22:27;;;;;;;2.20;1.50;;;;;;;;;;5039547;28;20929;-79
2021/10/21 01:25:20;;;;;;;2.27;1.60;;;15.90;1.00;;;;;;5046247;28;20885;-79
2021/10/21 01:27:48;;;;;;;1.50;1.40;;;15.90;1.00;;;;;;5037523;28;20507;-79
2021/10/21 01:30:27;;;;;;;1.63;1.40;;;15.90;1.00;;;;;;5037446;28;20419;-76
2021/10/21 01:33:03;;;;;;;1.63;1.50;;;;;;;;;;5054445;28;20989;-76
2021/10/21 01:35:33;;;;;;;1.50;1.23;;;;;;;;;;5054181;28;20509;-76
2021/10/21 01:38:03;;;;;;;2.10;1.73;;;;;;;;;;5056196;28;20897;-76
2021/10/21 01:40:39;;;;;;;8.30;2.83;;;;;;;;;;5037974;28;20466;-76
2021/10/21 01:43:15;;;;;;;4.00;1.73;;;;;;;;;;5044854;28;20406;-76
2021/10/21 01:45:45;;;;;;;1.40;1.30;;;;;;;;;;5043687;28;20436;-75
2021/10/21 01:48:21;;;;;;;3.27;1.80;;;15.90;1.00;;;;;;5040415;28;20880;-75
2021/10/21 01:50:47;;;;;;;4.03;1.80;;;15.90;1.00;;;;;;5038515;28;20479;-76
2021/10/21 01:53:14;;;;;;;3.77;1.90;;;;;;;;;;5045633;28;20451;-76
2021/10/21 01:56:02;;;;;;;5.63;1.97;;;;;;;;;;5035104;28;20431;-76
2021/10/21 01:58:28;;;;;;;2.60;1.77;;;;;;;;;;5042291;28;20406;-75
2021/10/21 02:00:54;;;;;;;7.20;2.70;;;;;;;;;;5049727;28;20594;-76
2021/10/21 02:03:21;;;;;;;3.80;1.30;;;;;;;;;;5049545;28;20425;-76
2021/10/21 02:05:51;;;;;;;4.30;1.83;;;;;;;;;;5054000;28;20419;-77
2021/10/21 02:08:27;;;;;;;3.38;1.30;;;;;;;;;;5043233;28;20512;-76
2021/10/21 02:11:03;;;;;;;4.40;1.13;;;;;;;;;;5055408;28;20186;-76
2021/10/21 02:13:33;;;;;;;1.53;1.10;;;;;;;;;;5044167;28;20422;-76
2021/10/21 02:16:09;;;;;;;1.00;0.90;;;;;;;;;;5055142;28;20901;-76
2021/10/21 02:18:45;;;;;;;1.90;1.00;;;;;;;;;;5043100;28;20418;-81
2021/10/21 02:21:21;;;;;;;4.90;1.10;;;14.40;1.00;;;;;;5042528;28;20826;-78
2021/10/21 02:23:51;;;;;;;2.10;1.00;;;;;;;;;;5038935;28;20426;-79
2021/10/21 02:26:27;;;;;;;1.47;0.90;;;;;;;;;;5043465;28;20913;-77
2021/10/21 02:28:56;;;;;;;3.80;1.10;;;;;;;;;;5044763;28;21026;-77
2021/10/21 02:31:27;;;;;;;1.40;0.87;;;;;;;;;;5035782;28;20896;-78
2021/10/21 02:33:57;;;;;;;6.83;1.23;;;;;;;;;;5035630;28;20434;-79
2021/10/21 02:36:23;;;;;;;3.10;1.00;;;;;;;;;;5050272;28;20426;-78
2021/10/21 02:38:49;;;;;;;4.20;1.10;;;;;;;;;;5055459;28;20433;-79
2021/10/21 02:41:21;;;;;;;5.60;0.90;;;;;;;;;;5051172;28;20509;-78
2021/10/21 02:44:26;;;;;;;1.73;0.80;;;13.90;1.00;;;;;;5052086;28;20925;-79
2021/10/21 02:47:09;;;;;;;1.80;0.80;;;;;;;;;;5048196;28;20416;-78
2021/10/21 02:49:45;;;;;;;1.10;0.53;;;;;;;;;;5034950;28;20894;-79
2021/10/21 02:52:21;;;;;;;1.33;0.60;;;;;;;;;;5035372;28;20429;-78
2021/10/21 02:54:57;;;;;;;1.00;0.70;;;;;;;;;;5050378;28;20422;-78
2021/10/21 02:57:28;;;;;;;1.27;0.80;;;;;;;;;;5053355;28;20809;-78
2021/10/21 03:00:04;;;;;;;1.27;0.60;;;;;;;;;;5040530;28;20471;-79
2021/10/21 03:02:30;;;;;;;2.73;0.80;;;;;;;;;;5039848;28;20516;-78
2021/10/21 03:05:26;;;;;;;4.57;0.67;;;13.80;1.00;;;;;;5037501;28;20783;-78
2021/10/21 03:07:52;;;;;;;6.07;1.07;;;;;;;;;;5036185;28;20510;-78
2021/10/21 03:10:33;;;;;;;1.23;0.60;;;;;;;;;;5043155;28;20419;-78
2021/10/21 03:13:09;;;;;;;2.57;0.80;;;;;;;;;;5041234;28;20418;-78
2021/10/21 03:16:14;;;;;;;2.83;1.10;;;13.70;1.00;;;;;;5051430;28;20430;-78
2021/10/21 03:18:40;;;;;;;0.97;0.83;;;;;;;;;;5034880;28;20422;-78
2021/10/21 03:21:09;;;;;;;8.47;1.10;;;;;;;;;;5039581;28;20822;-79
2021/10/21 03:23:39;;;;;;;1.43;0.60;;;;;;;;;;5040604;28;20477;-78
2021/10/21 03:26:15;;;;;;;1.50;0.60;;;;;;;;;;5052506;28;20393;-78
2021/10/21 03:28:51;;;;;;;2.10;0.70;;;;;;;;;;5038733;28;20414;-78
2021/10/21 03:31:21;;;;;;;5.93;1.10;;;;;;;;;;5042372;28;20418;-76
2021/10/21 03:33:48;;;;;;;11.43;1.23;;;;;;;;;;5050233;28;20561;-76
2021/10/21 03:36:44;;;;;;;3.20;0.90;;;13.70;1.00;;;;;;5039411;28;20470;-76
2021/10/21 03:39:15;;;;;;;1.27;0.70;;;;;;;;;;5043139;28;20434;-76
2021/10/21 03:41:46;;;;;;;4.20;1.57;;;;;;;;;;5041828;28;20937;-76
2021/10/21 03:44:32;;;;;;;0.70;0.60;;;;;;;;;;5043836;28;20414;-76
2021/10/21 03:47:03;;;;;;;1.47;1.00;;;13.80;1.00;;;;;;5048281;28;20459;-76
2021/10/21 03:49:33;;;;;;;3.77;2.10;;;;;;;;;;5038107;28;20409;-76
2021/10/21 03:52:04;;;;;;;2.57;1.10;;;13.90;1.00;;;;;;5041030;28;20493;-76
2021/10/21 03:54:33;;;;;;;1.60;0.90;;;;;;;;;;5052211;28;20462;-76
2021/10/21 03:57:15;;;;;;;0.80;0.60;;;;;;;;;;5047627;28;20441;-76
2021/10/21 03:59:45;;;;;;;1.60;0.70;;;;;;;;;;5041861;28;20408;-76
2021/10/21 04:02:15;;;;;;;1.87;0.83;;;;;;;;;;5039626;28;20960;-79
2021/10/21 04:04:45;;;;;;;4.50;0.60;;;;;;;;;;5052123;28;20418;-78
2021/10/21 04:07:11;;;;;;;2.53;1.00;;;;;;;;;;5034440;28;20423;-78
2021/10/21 04:09:37;;;;;;;3.10;0.50;;;;;;;;;;5047028;28;20411;-79
2021/10/21 04:12:26;;;;;;;1.70;0.77;;;14.10;1.00;;;;;;5045346;28;20893;-78
2021/10/21 04:15:03;;;;;;;0.77;0.70;;;;;;;;;;5032812;28;20405;-77
2021/10/21 04:17:33;;;;;;;2.33;0.70;;;14.10;1.00;;;;;;5051324;28;20569;-78
2021/10/21 04:20:09;;;;;;;4.50;1.07;;;;;;;;;;5042398;28;20522;-78
2021/10/21 04:22:39;;;;;;;0.63;0.50;;;;;;;;;;5037973;28;20420;-78
2021/10/21 04:25:09;;;;;;;2.77;0.57;;;;;;;;;;5041670;28;20906;-78
2021/10/21 04:27:45;;;;;;;0.83;0.50;;;;;;;;;;5033837;28;20503;-78
2021/10/21 04:30:12;;;;;;;5.60;0.73;;;14.20;1.00;;;;;;5046728;28;20413;-77
2021/10/21 04:32:57;;;;;;;5.20;0.97;;;;;;;;;;5048947;28;20490;-77
2021/10/21 04:35:39;;;;;;;3.33;0.93;;;;;;;;;;5037213;28;21008;-76
2021/10/21 04:38:09;;;;;;;1.80;0.47;;;;;;;;;;5033163;28;20413;-77
2021/10/21 04:40:35;;;;;;;14.97;1.83;;;;;;;;;;5045105;28;20524;-77
2021/10/21 04:43:01;;;;;;;3.77;1.10;;;;;;;;;;5040341;28;20445;-77
2021/10/21 04:45:27;;;;;;;3.20;0.83;;;;;;;;;;5039169;28;20787;-78
2021/10/21 04:47:56;;;;;;;6.87;1.30;;;;;;;;;;5033924;28;20443;-78
2021/10/21 04:50:24;;;;;;;1.00;0.70;;;14.30;1.00;;;;;;5039185;28;20427;-78
2021/10/21 04:52:54;;;;;;;2.80;1.00;;;;;;;;;;5033035;28;20403;-77
2021/10/21 04:55:50;;;;;;;1.03;0.53;;;14.30;1.00;;;;;;5033441;28;20389;-80
2021/10/21 04:58:16;;;;;;;1.13;0.53;;;;;;;;;;5047586;28;20466;-81
2021/10/21 05:00:45;;;;;;;2.20;0.80;;;;;;;;;;5031860;28;20516;-80
2021/10/21 05:03:15;;;;;;;5.97;0.87;;;;;;;;;;5046075;28;20415;-80
2021/10/21 05:05:51;;;;;;;5.90;1.10;;;;;;;;;;5050199;28;20406;-81
2021/10/21 05:08:21;;;;;;;2.73;0.73;;;;;;;;;;5036196;28;20395;-81
2021/10/21 05:10:51;;;;;;;0.80;0.67;;;;;;;;;;5049453;28;20392;-80
2021/10/21 05:13:21;;;;;;;9.90;0.90;;;;;;;;;;5056257;28;20398;-80
2021/10/21 05:15:47;;;;;;;1.53;0.63;;;;;;;;;;5055990;28;20425;-77
2021/10/21 05:18:16;;;;;;;4.00;1.13;;;;;;;;;;5045154;28;20912;-76
2021/10/21 05:20:42;;;;;;;2.00;0.77;;;;;;;;;;5042778;28;20459;-76
2021/10/21 05:23:08;;;;;;;3.03;0.90;;;;;;;;;;5056637;28;20405;-77
2021/10/21 05:26:02;;;;;;;3.00;0.90;;;13.90;1.00;;;;;;5056291;28;20414;-79
2021/10/21 05:28:39;;;;;;;1.93;1.17;;;;;;;;;;5035039;28;20561;-78
2021/10/21 05:31:09;;;;;;;11.10;1.30;;;;;;;;;;5043801;28;20421;-78
2021/10/21 05:33:35;;;;;;;3.43;0.90;;;;;;;;;;5042375;28;20498;-79
2021/10/21 05:36:03;;;;;;;6.10;0.90;;;13.70;1.00;;;;;;5048065;28;21154;-78
2021/10/21 05:38:30;;;;;;;4.87;1.60;;;;;;;;;;5050374;28;20531;-78
2021/10/21 05:40:56;;;;;;;6.43;1.60;;;;;;;;;;5048921;28;20474;-78
2021/10/21 05:43:22;;;;;;;4.20;0.93;;;;;;;;;;5039752;28;20418;-79
2021/10/21 05:45:50;;;;;;;5.77;0.97;;;;;;;;;;5043402;28;20458;-77
2021/10/21 05:48:33;;;;;;;6.00;1.50;;;;;;;;;;5037105;28;20415;-78
2021/10/21 05:51:15;;;;;;;0.60;0.50;;;;;;;;;;5038564;28;20843;-78
2021/10/21 05:53:41;;;;;;;3.23;0.60;;;;;;;;;;5039975;28;20427;-78
2021/10/21 05:56:15;;;;;;;1.63;0.90;;;;;;;;;;5036368;28;20382;-79
2021/10/21 05:58:45;;;;;;;1.77;0.60;;;;;;;;;;5044396;28;20905;-78
2021/10/21 06:01:15;;;;;;;0.80;0.60;;;;;;;;;;5052158;28;20517;-78
2021/10/21 06:04:02;;;;;;;2.63;0.90;;;13.80;1.00;;;;;;5035737;28;20377;-77
2021/10/21 06:06:39;;;;;;;1.43;0.50;;;;;;;;;;5036472;28;20410;-78
2021/10/21 06:09:20;;;;;;;1.37;0.57;;;;;;;;;;5036083;28;20399;-79
2021/10/21 06:11:46;;;;;;;2.30;0.60;;;;;;;;;;5046426;28;20785;-77
2021/10/21 06:14:21;;;;;;;1.37;0.50;;;;;;;;;;5055383;28;20487;-79
2021/10/21 06:17:04;;;;;;;29.37;3.33;;;;;;;;;;5040560;28;20417;-80
2021/10/21 06:19:31;;;;;;;8.07;0.90;;;;;;;;;;5041936;28;20782;-79
2021/10/21 06:22:02;;;;;;;1.00;0.63;;;;;;;;;;5052025;28;20890;-79
2021/10/21 06:24:28;;;;;;;0.83;0.60;;;;;;;;;;5046150;28;20942;-76
2021/10/21 06:26:54;;;;;;;3.63;1.13;;;;;;;;;;5049739;28;20415;-83
2021/10/21 06:29:21;;;;;;;1.00;0.60;;;;;;;;;;5050776;28;20426;-77
2021/10/21 06:31:49;;;;;;;24.50;1.77;;;14.10;1.00;;;;;;5046633;28;20421;-78
2021/10/21 06:34:21;;;;;;;3.07;0.77;;;;;;;;;;5046488;28;20418;-76
2021/10/21 06:36:47;;;;;;;12.87;1.43;;;14.20;1.00;;;;;;5048580;28;20419;-78
2021/10/21 06:39:14;;;;;;;5.53;0.93;;;;;;;;;;5038174;28;20524;-78
2021/10/21 06:41:45;;;;;;;3.43;0.70;;;;;;;;;;5035577;28;20465;-78
2021/10/21 06:44:15;;;;;;;3.60;0.60;;;;;;;;;;5043994;28;20893;-79
2021/10/21 06:46:51;;;;;;;1.47;0.70;;;;;;;;;;5050874;28;20967;-81
2021/10/21 06:49:17;;;;;;;5.97;0.90;;;;;;;;;;5044260;28;20821;-77
2021/10/21 06:51:43;;;;;;;1.20;0.60;;;;;;;;;;5048908;28;20410;-77
2021/10/21 06:54:09;;;;;;;3.03;0.90;;;;;;;;;;5051490;28;20509;-77
2021/10/21 06:56:35;;;;;;;81.27;9.90;;;;;;;;;;5040929;28;20443;-77
2021/10/21 06:59:01;;;;;;;5.90;0.67;;;;;;;;;;5038010;28;20453;-77
2021/10/21 07:01:27;;;;;;;0.50;0.50;;;;;;;;;;5051961;28;20814;-77
2021/10/21 07:03:53;;;;;;;0.70;0.67;;;;;;;;;;5053850;28;20468;-79
2021/10/21 07:06:19;;;;;;;0.53;0.50;;;;;;;;;;5047525;28;20419;-79
2021/10/21 07:08:45;;;;;;;2.63;0.60;;;;;;;;;;5053630;28;20406;-77
2021/10/21 07:11:11;;;;;;;0.57;0.57;;;;;;;;;;5047922;28;20968;-78
2021/10/21 07:13:39;;;;;;;2.30;0.60;;;13.50;1.00;;;;;;5045214;28;20454;-78
2021/10/21 07:16:06;;;;;;;1.33;0.60;;;;;;;;;;5034671;28;20433;-77
2021/10/21 07:18:32;;;;;;;2.83;0.50;;;;;;;;;;5035387;28;20442;-77
2021/10/21 07:20:58;;;;;;;0.50;0.50;;;;;;;;;;5050366;28;20501;-78
2021/10/21 07:23:24;;;;;;;3.13;0.70;;;;;;;;;;5053117;28;20381;-77
2021/10/21 07:25:50;;;;;;;1.03;0.80;;;;;;;;;;5047840;28;20461;-78
2021/10/21 07:28:21;;;;;;;1.27;0.60;;;;;;;;;;5053209;28;20449;-77
2021/10/21 07:30:47;;;;;;;0.50;0.50;;;;;;;;;;5049366;28;20422;-77
2021/10/21 07:33:13;;;;;;;1.47;0.70;;;;;;;;;;5048197;28;20476;-78
2021/10/21 07:35:39;;;;;;;0.50;0.40;;;;;;;;;;5052769;28;20452;-78
2021/10/21 07:38:06;;;;;;;1.57;0.60;;;;;;;;;;5052984;28;20441;-78
2021/10/21 07:40:33;;;;;;;1.03;0.60;;;;;;;;;;5048613;28;20477;-77
2021/10/21 07:42:58;;;;;;;1.43;0.50;;;13.30;1.00;;;;;;5051680;28;20429;-77
2021/10/21 07:45:24;;;;;;;0.50;0.50;;;13.40;1.00;;;;;;5052647;28;20438;-77
2021/10/21 07:47:50;;;;;;;0.40;0.40;;;;;;;;;;5052011;28;20658;-76
2021/10/21 07:50:18;;;;;;;0.70;0.50;;;;;;;;;;5052701;28;20543;-77
2021/10/21 07:52:46;;;;;;;0.60;0.50;;;;;;;;;;5052714;28;20414;-76
2021/10/21 07:55:13;;;;;;;4.30;0.70;;;;;;;;;;5051071;28;20418;-77
2021/10/21 07:57:39;;;;;;;0.70;0.47;;;;;;;;;;5045449;28;20512;-77
2021/10/21 08:00:07;;;;;;;0.50;0.40;;;13.60;1.00;;;;;;5047765;28;20463;-77
2021/10/21 08:02:33;;;;;;;0.50;0.50;;;;;;;;;;5052685;28;20462;-77
2021/10/21 08:04:59;;;;;;;5.53;0.50;;;;;;;;;;5046944;28;20799;-79
2021/10/21 08:07:25;;;;;;;0.53;0.50;;;;;;;;;;5046510;28;20459;-77
2021/10/21 08:09:51;;;;;;;2.10;0.73;;;;;;;;;;5043209;28;20773;-78
2021/10/21 08:12:17;;;;;;;3.33;0.50;;;;;;;;;;5052517;28;20410;-77
2021/10/21 08:14:43;;;;;;;0.40;0.40;;;;;;;;;;5045214;28;20414;-78
2021/10/21 08:17:12;;;;;;;2.80;0.70;;;13.60;1.00;;;;;;5034964;28;20411;-76
2021/10/21 08:19:38;;;;;;;2.00;0.90;;;;;;;;;;5040782;28;20790;-76
2021/10/21 08:22:04;;;;;;;0.70;0.50;;;13.50;1.00;;;;;;5042521;28;20468;-77
2021/10/21 08:24:30;;;;;;;0.40;0.37;;;;;;;;;;5036992;28;20437;-76
2021/10/21 08:26:56;;;;;;;0.90;0.50;;;;;;;;;;5037418;28;20423;-76
2021/10/21 08:29:23;;;;;;;2.10;0.60;;;13.50;1.00;;;;;;5044532;28;20406;-76
2021/10/21 08:31:55;;;;;;;2.13;0.60;;;13.50;1.00;;;;;;5048932;28;20410;-77
2021/10/21 08:34:21;;;;;;;0.50;0.43;;;;;;;;;;5048771;28;20411;-77
2021/10/21 08:36:47;;;;;;;0.50;0.50;;;;;;;;;;5047799;28;20778;-77
2021/10/21 08:39:13;;;;;;;0.93;0.47;;;;;;;;;;5046356;28;20457;-78
2021/10/21 08:41:42;;;;;;;0.60;0.57;;;;;;;;;;5052802;28;20449;-77
2021/10/21 08:44:08;;;;;;;0.50;0.40;;;;;;;;;;5055518;28;20901;-78
2021/10/21 08:46:34;;;;;;;0.50;0.40;;;;;;;;;;5054557;28;20452;-77
2021/10/21 08:49:02;;;;;;;0.50;0.40;;;13.90;1.00;;;;;;5053880;28;20425;-78
2021/10/21 08:51:31;;;;;;;0.80;0.40;;;13.90;1.00;;;;;;5042347;28;20490;-77
2021/10/21 08:54:02;;;;;;;5.87;0.67;;;13.90;1.00;;;;;;5053414;28;20440;-77
2021/10/21 08:56:28;;;;;;;0.70;0.50;;;;;;;;;;5047955;28;20422;-77
2021/10/21 08:58:55;;;;;;;0.80;0.50;;;14.00;1.00;;;;;;5045065;28;20786;-78
2021/10/21 09:01:45;;;;;;;0.70;0.50;;;;;;;;;;5055719;28;20420;-79
2021/10/21 09:04:28;;;;;;;1.10;0.50;;;13.90;1.00;;;;;;5055865;28;20543;-78
2021/10/21 09:09:20;;;;;;;1.37;0.60;;;13.90;1.00;;;;;;5053756;28;20426;-81
2021/10/21 09:12:03;;;;;;;1.93;0.90;;;13.90;1.00;;;;;;5054903;28;20480;-80
2021/10/21 09:14:49;;;;;;;1.90;0.60;;;14.00;1.00;;;;;;5045430;28;21026;-78
2021/10/21 09:17:18;;;;;;;0.97;0.67;;;14.00;1.00;;;;;;5049387;28;20831;-78
2021/10/21 09:19:45;;;;;;;0.80;0.67;;;;;;;;;;5044584;28;20454;-78
2021/10/21 09:22:24;;;;;;;0.60;0.60;;;14.00;1.00;;;;;;5044866;28;20430;-78
2021/10/21 09:24:51;;;;;;;3.60;0.90;;;;;;;;;;5044974;28;20905;-77
2021/10/21 09:27:19;;;;;;;0.97;0.50;;;14.10;1.00;;;;;;5049946;28;20422;-78
2021/10/21 09:29:50;;;;;;;2.00;0.93;;;14.20;1.00;;;;;;5050614;28;20434;-78
2021/10/21 09:32:24;;;;;;;2.60;0.70;;;14.10;1.00;;;;;;5050813;28;20466;-81
2021/10/21 09:34:51;;;;;;;0.50;0.50;;;;;;;;;;5048737;28;20454;-77
2021/10/21 09:37:41;;;;;;;0.60;0.60;;;14.10;1.00;;;;;;5044281;28;20426;-78
2021/10/21 09:40:10;;;;;;;1.20;0.90;;;14.10;1.00;;;;;;5043566;28;20435;-78
2021/10/21 09:42:41;;;;;;;1.23;0.77;;;14.20;1.00;;;;;;5054497;28;20430;-78
2021/10/21 09:45:22;;;;;;;1.90;0.70;;;14.10;1.00;;;;;;5047067;28;20445;-78
2021/10/21 09:47:54;;;;;;;11.27;1.97;;;14.10;1.00;;;;;;5048744;28;20428;-78
2021/10/21 09:50:45;;;;;;;1.70;0.83;;;;;;;;;;5048948;28;20462;-78
2021/10/21 09:53:31;;;;;;;0.90;0.60;;;13.90;1.00;;;;;;5044167;28;20912;-77
2021/10/21 09:56:00;;;;;;;0.80;0.70;;;10.50;1.00;;;;;;5053569;28;20421;-78
2021/10/21 09:58:28;;;;;;;1.70;0.70;;;;;;;;;;5039148;28;20427;-78
2021/10/21 10:01:15;;;;;;;1.70;0.73;;;13.90;1.00;;;;;;5048830;28;20920;-78
2021/10/21 10:03:43;;;;;;;0.90;0.70;;;13.90;1.00;;;;;;5044802;28;20969;-77
2021/10/21 10:06:16;;;;;;;1.90;0.80;;;13.90;1.00;;;;;;5034865;28;20434;-77
2021/10/21 10:08:45;;;;;;;1.53;0.80;;;13.90;1.00;;;;;;5034834;28;20419;-77
2021/10/21 10:11:15;;;;;;;2.93;0.70;;;13.90;1.00;;;;;;5034579;28;20451;-77
2021/10/21 10:13:44;;;;;;;2.73;1.37;;;14.00;1.00;;;;;;5034590;28;20432;-78
2021/10/21 10:16:10;;;;;;;0.80;0.77;;;14.00;1.00;;;;;;5054376;28;20506;-77
2021/10/21 10:18:42;;;;;;;0.70;0.70;;;14.10;1.00;;;;;;5037626;28;20419;-78
2021/10/21 10:21:29;;;;;;;0.60;0.50;;;14.10;1.00;;;;;;5041601;28;20508;-77
2021/10/21 10:23:55;;;;;;;1.83;0.60;;;;;;;;;;5054324;28;20489;-78
2021/10/21 10:26:47;;;;;;;0.60;0.57;;;14.10;1.00;;;;;;5054400;28;20493;-78
2021/10/21 10:29:19;;;;;;;2.93;0.63;;;14.20;1.00;;;;;;5051837;28;20432;-78
2021/10/21 10:31:48;;;;;;;0.83;0.73;;;14.20;1.00;;;;;;5054242;28;20456;-78
2021/10/21 10:34:32;;;;;;;2.10;0.77;;;14.20;1.00;;;;;;5054428;28;20955;-77
2021/10/21 10:37:13;;;;;;;1.37;0.57;;;14.20;1.00;;;;;;5053908;28;20413;-78
2021/10/21 10:39:49;;;;;;;3.23;0.70;;;14.20;1.00;;;;;;5040481;28;20419;-78
2021/10/21 10:42:35;;;;;;;4.10;0.80;;;14.20;1.00;;;;;;5040899;28;20460;-77
2021/10/21 10:45:04;;;;;;;1.30;0.87;;;14.20;1.00;;;;;;5050912;28;20794;-77
2021/10/21 10:47:50;;;;;;;3.80;1.50;;;14.30;1.00;;;;;;5049924;28;20422;-77
2021/10/21 10:50:16;;;;;;;2.03;0.70;;;;;;;;;;5039636;28;20462;-77
2021/10/21 10:52:45;;;;;;;5.20;1.23;;;14.70;1.00;;;;;;5049576;28;20426;-77
2021/10/21 10:55:24;;;;;;;2.07;1.10;;;14.70;1.00;;;;;;5051810;28;20462;-77
2021/10/21 10:57:51;;;;;;;1.40;0.90;;;14.90;1.00;;;;;;5050517;28;20434;-77
2021/10/21 11:00:37;;;;;;;8.80;2.00;;;15.10;1.00;;;;;;5045977;28;21102;-77
2021/10/21 11:03:08;;;;;;;5.70;0.83;;;15.20;1.00;;;;;;4999822;28;20445;-77
2021/10/21 11:05:43;;;;;;;2.93;0.60;;;15.20;1.00;;;;;;5002104;28;20432;-78
2021/10/21 11:08:10;;;;;;;1.30;0.87;;;15.10;1.00;;;;;;5012459;28;20447;-77
2021/10/21 11:10:39;;;;;;;1.33;0.90;;;15.00;1.00;;;;;;5011527;28;21001;-78
2021/10/21 11:13:23;;;;;;;2.80;1.07;;;15.10;1.00;;;;;;5008008;28;20438;-78
2021/10/21 11:15:49;;;;;;;22.70;1.43;;;;;;;;;;5003111;28;20436;-78
2021/10/21 11:18:50;;;;;;;1.30;0.83;;;15.10;1.00;;;;;;4982297;28;20459;-76
2021/10/21 11:21:55;;;;;;;3.10;1.00;;;15.20;1.00;;;;;;5008649;28;20470;-77
2021/10/21 11:27:11;;;;;;;7.70;2.30;;;;;;;;;;4891052;29;20416;-77
2021/10/21 11:29:37;;;;;;;1.77;0.90;;;;;;;;;;4919199;29;20432;-77
2021/10/21 11:32:08;;;;;;;1.80;0.80;;;15.40;1.00;;;;;;4914289;29;20399;-78
2021/10/21 11:34:34;;;;;;;1.63;0.70;;;15.40;1.00;;;;;;4913924;29;20411;-77
2021/10/21 11:37:00;;;;;;;0.90;0.70;;;;;;;;;;4904284;29;20843;-77
2021/10/21 11:39:40;;;;;;;3.33;1.10;;;15.30;1.00;;;;;;4915887;29;20445;-77
2021/10/21 11:42:10;;;;;;;3.93;1.20;;;15.30;1.00;;;;;;4970146;28;20477;-77
2021/10/21 11:44:38;;;;;;;3.60;1.33;;;15.30;1.00;;;;;;4965956;28;20992;-81
2021/10/21 11:47:05;;;;;;;3.57;1.10;;;;;;;;;;4954709;28;20435;-77
2021/10/21 11:49:34;;;;;;;3.23;1.10;;;15.20;1.00;;;;;;4955163;28;20437;-77
2021/10/21 11:52:11;;;;;;;2.50;0.87;;;15.20;1.00;;;;;;4952608;28;20469;-77
2021/10/21 11:54:38;;;;;;;8.10;1.80;;;15.10;1.00;;;;;;4983109;28;20876;-77
2021/10/21 11:57:05;;;;;;;3.70;0.93;;;15.00;1.00;;;;;;5038470;28;20417;-77
2021/10/21 11:59:41;;;;;;;1.20;0.80;;;15.00;1.00;;;;;;5046517;28;20421;-77
2021/10/21 12:02:18;;;;;;;58.87;5.80;;;15.10;1.00;;;;;;5045106;28;20557;-77
2021/10/21 12:04:45;;;;;;;5.20;1.20;;;15.10;1.00;;;;;;5060639;28;20434;-78
2021/10/21 12:07:11;;;;;;;2.90;1.13;;;;;;;;;;5044900;28;20435;-77
2021/10/21 12:09:39;;;;;;;4.93;1.43;;;15.10;1.00;;;;;;5033461;28;20415;-77
2021/10/21 12:12:07;;;;;;;5.03;0.87;;;15.10;1.00;;;;;;5031160;28;20423;-77
2021/10/21 12:14:35;;;;;;;15.23;2.20;;;15.00;1.00;;;;;;5044082;28;20417;-76
2021/10/21 12:17:01;;;;;;;3.33;0.80;;;;;;;;;;5043834;28;20469;-77
2021/10/21 12:19:29;;;;;;;1.80;0.80;;;;;;;;;;5047560;28;20918;-77
2021/10/21 12:22:18;;;;;;;2.77;0.90;;;15.10;1.00;;;;;;5035903;28;20469;-77
2021/10/21 12:24:48;;;;;;;2.70;1.20;;;15.20;1.00;;;;;;5038064;28;20422;-78
2021/10/21 12:27:21;;;;;;;1.20;0.90;;;15.30;1.00;;;;;;5047104;28;20441;-77
2021/10/21 12:29:48;;;;;;;4.83;1.27;;;;;;;;;;5041443;28;20421;-80
2021/10/21 12:32:21;;;;;;;25.43;3.37;;;15.80;1.00;;;;;;5046227;28;20931;-77
2021/10/21 12:34:48;;;;;;;4.33;1.23;;;16.00;1.00;;;;;;5050549;28;20467;-79
2021/10/21 12:37:23;;;;;;;1.47;0.77;;;16.10;1.00;;;;;;5044991;28;20401;-77
2021/10/21 12:39:50;;;;;;;1.37;0.90;;;;;;;;;;5051373;28;20411;-77
2021/10/21 12:42:21;;;;;;;1.07;0.70;;;16.30;1.00;;;;;;5055981;28;20465;-77
2021/10/21 12:44:55;;;;;;;11.43;1.10;;;16.30;1.00;;;;;;5056066;28;20437;-77
2021/10/21 12:47:23;;;;;;;5.83;1.10;;;16.10;1.00;;;;;;5041797;28;20509;-76
2021/10/21 12:50:03;;;;;;;5.10;0.80;;;16.10;1.00;;;;;;5051716;28;20852;-76
2021/10/21 12:52:45;;;;;;;1.90;0.87;;;16.10;1.00;;;;;;5045030;28;20394;-77
2021/10/21 12:55:19;;;;;;;1.53;0.97;;;16.20;1.00;;;;;;5043898;28;20882;-78
2021/10/21 12:57:51;;;;;;;1.13;0.60;;;;;;;;;;5050660;28;20512;-78
2021/10/21 13:00:33;;;;;;;2.67;1.17;;;16.40;1.00;;;;;;5050560;28;20426;-78
2021/10/21 13:03:12;;;;;;;3.07;1.03;;;16.20;1.00;;;;;;5053506;28;20451;-78
2021/10/21 13:05:39;;;;;;;7.53;0.90;;;16.20;1.00;;;;;;5050111;28;20415;-76
2021/10/21 13:08:07;;;;;;;3.60;0.80;;;;;;;;;;5062706;28;20404;-75
2021/10/21 13:10:33;;;;;;;3.83;0.93;;;;;;;;;;5040987;28;20438;-76
2021/10/21 13:12:59;;;;;;;3.60;0.93;;;;;;;;;;5055325;28;21018;-76
2021/10/21 13:15:25;;;;;;;9.00;1.13;;;;;;;;;;5051077;28;20428;-78
2021/10/21 13:17:51;;;;;;;3.20;1.60;;;;;;;;;;5046131;28;20418;-76
2021/10/21 13:20:21;;;;;;;15.73;3.20;;;16.60;1.00;;;;;;5053345;28;20424;-76
2021/10/21 13:22:47;;;;;;;2.80;1.47;;;;;;;;;;5054817;28;20857;-77
2021/10/21 13:25:13;;;;;;;3.63;1.33;;;;;;;;;;5055140;28;20705;-78
2021/10/21 13:27:41;;;;;;;3.47;1.10;;;;;;;;;;5040294;28;20410;-77
2021/10/21 13:30:08;;;;;;;4.53;1.20;;;16.40;1.00;;;;;;5046374;28;20450;-78
2021/10/21 13:32:34;;;;;;;1.67;0.90;;;16.40;1.00;;;;;;5042856;28;20410;-80
2021/10/21 13:35:01;;;;;;;5.10;1.10;;;;;;;;;;5047760;28;20476;-84
2021/10/21 13:37:27;;;;;;;1.70;0.87;;;;;;;;;;5051896;28;20944;-82
2021/10/21 13:39:57;;;;;;;3.37;1.27;;;15.80;1.00;;;;;;5055307;28;20411;-79
2021/10/21 13:42:23;;;;;;;1.97;0.97;;;;;;;;;;5054926;28;20522;-80
2021/10/21 13:44:49;;;;;;;6.03;0.93;;;15.50;1.00;;;;;;5053446;28;20488;-81
2021/10/21 13:47:15;;;;;;;1.90;1.20;;;;;;;;;;5054787;28;20475;-80
2021/10/21 13:49:41;;;;;;;2.70;1.00;;;;;;;;;;5055024;28;20233;-81
2021/10/21 13:52:08;;;;;;;9.10;1.60;;;;;;;;;;5055296;28;20406;-75
2021/10/21 13:54:34;;;;;;;8.63;1.53;;;;;;;;;;5051180;28;20458;-77
2021/10/21 13:57:01;;;;;;;21.53;3.83;;;;;;;;;;5042330;28;20430;-77
2021/10/21 13:59:27;;;;;;;3.53;1.30;;;;;;;;;;5045230;28;20434;-77
2021/10/21 14:01:53;;;;;;;5.50;1.03;;;;;;;;;;5052937;28;20485;-78
2021/10/21 14:04:19;;;;;;;1.90;0.70;;;;;;;;;;5054781;28;20889;-78
2021/10/21 14:06:45;;;;;;;2.90;1.27;;;;;;;;;;5047095;28;20992;-77
2021/10/21 14:09:12;;;;;;;0.90;0.80;;;;;;;;;;5054587;28;20898;-78
2021/10/21 14:11:38;;;;;;;7.70;1.50;;;;;;;;;;5050834;28;20526;-77
2021/10/21 14:14:07;;;;;;;7.30;1.60;;;;;;;;;;5041405;28;20427;-78
2021/10/21 14:16:34;;;;;;;5.47;1.27;;;;;;;;;;5043769;28;20463;-78
2021/10/21 14:19:00;;;;;;;1.63;1.20;;;;;;;;;;5038959;28;20428;-78
2021/10/21 14:21:26;;;;;;;3.10;1.77;;;;;;;;;;5053262;28;20864;-77
2021/10/21 14:23:52;;;;;;;2.30;1.10;;;;;;;;;;5043205;28;20420;-78
2021/10/21 14:26:18;;;;;;;4.70;1.03;;;;;;;;;;5041361;28;20750;-77
2021/10/21 14:28:44;;;;;;;9.80;1.30;;;;;;;;;;5049802;28;20422;-77
2021/10/21 14:31:10;;;;;;;3.30;1.10;;;;;;;;;;5050449;28;20448;-77